Relevés horaires Bierset (Belgique)


Relevés horaires à Bierset - Vendredi 02 Juin 2023
Heure UTC1 Température [°C] Vent [km/h] Hum. [%] Pres.4 [hPa] Visi. [Km] Nébu. [octa] Préc.5 [mm] Cond.
2m. Res. Ros. Dir.2 Vit. Moy. Raf.3
23:00 10.5 10.2 6.4 NE 5.6 5.6 7.4 76 1020.7(0.5/3h) 20 1/8 -- --
22:00 11.4 11.2 6.5 NE 5.6 5.6 7.4 72 1020.5(0.3/3h) 20 1/8 -- --
21:00 12.5 12.4 6.8 NE 5.6 11.1 16.7 68 1020.4(0.5/3h) 20 1/8 -- --
20:00 13.9 13.4 6.8 NE 9.3 9.3 16.7 62 1020(0.2/3h) 20 1/8 -- --
19:00 15.3 14.8 7.0 NE 11.1 11.1 16.7 58 1019.9(-0.1/3h) 20 1/8 -- --
18:00 16.4 16.2 7.5 NE 11.1 13.0 18.5 56 1019.6(-0.6/3h) 20 2/8 0/12h
--
17:00 17.0 17.0 7.3 NE 9.3 11.1 16.7 53 1019.5(-1.1/3h) 20 1/8 -- --
16:00 17.1 17.1 6.0 ENE 9.3 11.1 16.7 48 1019.8(-1.1/3h) 30 0/8 -- --
15:00 17.2 17.2 6.9 NE 7.4 11.1 18.5 51 1020.2(-0.9/3h) 30 0/8 -- --
14:00 15.9 15.9 6.4 N 7.4 9.3 18.5 53 1020.8(-0.6/3h) 30 0/8 -- --
13:00 15.4 15.4 6.9 NNE 5.6 9.3 14.8 57 1021(-0.6/3h) 30 1/8 -- --
12:00 14.1 13.9 5.7 NNO 7.4 9.3 14.8 57 1021.3(-0.3/3h) 30 1/8 0/6h
--
11:00 12.9 12.2 5.6 N 9.3 9.3 14.8 61 1021.6(0.2/3h) 30 2/8 -- --
10:00 11.2 10.2 5.1 NNE 9.3 9.3 13.0 66 1022(-0.1/3h) 30 7/8 -- --
09:00 10.7 10 5.1 N 7.4 9.3 14.8 68 1021.9(-0.1/3h) 30 7/8 -- --
08:00 10.0 9.1 4.6 N 7.4 9.3 14.8 69 1022(0.3/3h) 30 7/8 -- --
07:00 9.5 8.6 3.9 NNE 7.4 9.3 14.8 68 1022.1(0.7/3h) 30 7/8 -- --
06:00 9.1 7.7 4.3 N 9.3 9.3 13.0 72 1021.9(0.5/3h) 30 7/8 0/12h
--
05:00 9.1 7.7 4.7 N 9.3 9.3 13.0 74 1021.7(0.3/3h) 30 7/8 -- --
04:00 9.6 8.3 5.2 N 9.3 9.3 13.0 74 1021.3(-0.1/3h) 20 7/8 -- --
03:00 9.9 9 5.6 N 7.4 9.3 13.0 75 1021.3(-0.1/3h) 20 7/8 -- --
02:00 10.1 9.7 6.1 N 5.6 7.4 11.1 76 1021.3(0.1/3h) 20 7/8 -- --
01:00 10.2 9.4 6.4 N 7.4 9.3 13.0 77 1021.4(0.1/3h) 20 7/8 -- --
00:00 10.6 9.8 7.1 N 7.4 11.1 16.7 79 1021.4(0.6/3h) 20 7/8 0/6h
0/24h
--

1 Coordinated Universal Time. Actuellement il est 13:00 locale et 11:00 UTC.

2 Le vent souffle depuis la direction indiquée vers la direction oposée.

3 Les rafales max. sont disponible 40 min après l'heure du relevé.

4 Pour les stations d'altitude (plus de 600m) le géopotentiel du niveau le plus proche de la pression obligatoire est indiqué.

5 Les stations disposant d'un diffuseur peuvent indiquer "trace". Cela signifie que des précipitations ont touchés le sol mais que la quantité est inférieure à 0.1 mm.

Récapitulatif de la journée
Température [°C] Vent [km/h] Ensoleillement4 [h] Precipitations totale5 [mm] Pression [Hpa]
Min1 Max.2 Moy.3 Max. Min Max.
8.9 17.5 9.5 18.5 0 h 0 min 0 1019.5 1022.1

1 Température minimale relevée entre 18:00 UTC la veille et 18:00 UTC le jour donné.

2 Température maximale relevée entre 06:00 UTC le jour donné et 06:00 UTC le lendemain.

3 Vent moyen de la journée basé sur les relevés horaires.

4 Ensoleillement en heures relevé entre 06:00 UTC la veille et 06:00 UTC le jour donné.

5 Précipitations totales tombées entre 06:00 UTC la jour donné et 06:00 UTC le lendemain.

Graphiques horaires